createdAt,value
2023-11-14T00:00:26.008Z,77.22
2023-11-14T00:02:53.121Z,78.24
2023-11-14T00:05:20.092Z,78.84
2023-11-14T00:07:47.044Z,78.64
2023-11-14T00:10:14.097Z,78.44
2023-11-14T00:12:41.085Z,77.42
2023-11-14T00:15:08.874Z,77.33
2023-11-14T00:17:36.492Z,77.16
2023-11-14T00:20:06.953Z,78.33
2023-11-14T00:22:35.142Z,76.97
2023-11-14T00:25:02.212Z,77.41
2023-11-14T00:27:29.073Z,76.50
2023-11-14T00:29:55.980Z,77.12
2023-11-14T00:32:22.975Z,76.65
2023-11-14T00:34:51.152Z,76.99
2023-11-14T00:37:18.804Z,77.87
2023-11-14T00:39:45.785Z,77.99
2023-11-14T00:42:14.003Z,76.90
2023-11-14T00:44:41.019Z,76.18
2023-11-14T00:47:07.997Z,75.21
2023-11-14T00:49:35.054Z,74.47
2023-11-14T00:52:02.103Z,74.21
2023-11-14T00:54:32.174Z,75.56
2023-11-14T00:56:59.592Z,75.26
2023-11-14T00:59:26.540Z,74.67
2023-11-14T01:01:53.665Z,74.61
2023-11-14T01:04:21.755Z,75.64
2023-11-14T01:06:48.828Z,74.90
2023-11-14T01:09:15.693Z,73.84
2023-11-14T01:11:42.834Z,73.79
2023-11-14T01:14:09.821Z,74.23
2023-11-14T01:16:36.885Z,73.61
2023-11-14T01:19:04.199Z,73.06
2023-11-14T01:21:32.434Z,73.15
2023-11-14T01:23:59.420Z,72.29
2023-11-14T01:26:33.012Z,72.32
2023-11-14T01:29:00.003Z,72.32
2023-11-14T01:31:27.015Z,72.92
2023-11-14T01:33:53.910Z,73.30
2023-11-14T01:36:21.255Z,73.58
2023-11-14T01:38:48.176Z,73.54
2023-11-14T01:41:15.599Z,73.50
2023-11-14T01:43:47.125Z,73.49
2023-11-14T01:46:19.865Z,72.45
2023-11-14T01:48:53.369Z,72.82
2023-11-14T01:51:22.083Z,72.06
2023-11-14T01:53:50.972Z,72.06
2023-11-14T01:56:18.905Z,72.38
2023-11-14T01:58:47.192Z,72.76
2023-11-14T02:01:14.814Z,72.64
2023-11-14T02:03:43.079Z,72.71
2023-11-14T02:06:11.074Z,73.28
2023-11-14T02:08:39.502Z,72.65
2023-11-14T02:11:07.325Z,72.41
2023-11-14T02:13:35.484Z,72.65
2023-11-14T02:16:03.033Z,73.03
2023-11-14T02:18:30.221Z,72.64
2023-11-14T02:20:57.254Z,72.96
2023-11-14T02:23:27.201Z,72.56
2023-11-14T02:25:54.750Z,72.89
2023-11-14T02:28:21.741Z,72.70
2023-11-14T02:30:49.167Z,72.96
2023-11-14T02:33:16.673Z,71.95
2023-11-14T02:35:43.670Z,72.29
2023-11-14T02:38:11.167Z,72.72
2023-11-14T02:40:38.442Z,72.54
2023-11-14T02:43:05.628Z,71.10
2023-11-14T02:45:32.513Z,71.52
2023-11-14T02:47:59.415Z,71.47
2023-11-14T02:50:51.713Z,70.75
2023-11-14T02:53:22.713Z,70.21
2023-11-14T02:55:53.810Z,69.95
2023-11-14T02:58:21.181Z,69.89
2023-11-14T03:00:50.443Z,70.16
2023-11-14T03:03:18.199Z,70.38
2023-11-14T03:05:46.208Z,70.25
2023-11-14T03:08:13.713Z,70.05
2023-11-14T03:10:40.839Z,69.98
2023-11-14T03:13:10.166Z,70.31
2023-11-14T03:15:37.903Z,70.26
2023-11-14T03:18:05.513Z,69.82
2023-11-14T03:20:35.032Z,69.56
2023-11-14T03:23:04.144Z,70.16
2023-11-14T03:25:31.579Z,70.11
2023-11-14T03:28:02.798Z,70.47
2023-11-14T03:30:29.990Z,70.24
2023-11-14T03:32:57.092Z,70.38
2023-11-14T03:35:24.130Z,70.10
2023-11-14T03:37:51.061Z,70.25
2023-11-14T03:40:17.948Z,70.13
2023-11-14T03:42:44.855Z,70.46
2023-11-14T03:45:11.716Z,69.81
2023-11-14T03:47:39.186Z,70.16
2023-11-14T03:50:09.451Z,70.38
2023-11-14T03:52:37.458Z,70.50
2023-11-14T03:55:04.611Z,70.18
2023-11-14T03:57:31.485Z,70.41
2023-11-14T03:59:58.395Z,70.52
2023-11-14T04:02:26.011Z,71.08
2023-11-14T04:04:54.382Z,70.98
2023-11-14T04:07:21.342Z,70.78
2023-11-14T04:09:48.280Z,71.12
2023-11-14T04:12:15.165Z,71.26
2023-11-14T04:14:42.032Z,71.63
2023-11-14T04:17:09.069Z,71.25
2023-11-14T04:19:36.852Z,71.63
2023-11-14T04:22:04.166Z,71.05
2023-11-14T04:24:32.876Z,71.76
2023-11-14T04:27:01.256Z,71.59
2023-11-14T04:29:28.130Z,71.32
2023-11-14T04:31:55.101Z,72.25
2023-11-14T04:34:22.026Z,71.94
2023-11-14T04:36:48.927Z,71.60
2023-11-14T04:39:15.881Z,71.72
2023-11-14T04:41:44.102Z,71.93
2023-11-14T04:44:13.919Z,71.88
2023-11-14T04:46:45.418Z,72.42
2023-11-14T04:49:12.882Z,72.31
2023-11-14T04:51:39.766Z,72.45
2023-11-14T04:54:06.937Z,72.30
2023-11-14T04:56:35.435Z,72.51
2023-11-14T04:59:03.091Z,73.07
2023-11-14T05:01:30.139Z,73.48
2023-11-14T05:03:57.111Z,73.05
2023-11-14T05:06:24.074Z,73.09
2023-11-14T05:08:52.024Z,72.94
2023-11-14T05:11:19.277Z,72.91
2023-11-14T05:13:46.190Z,73.52
2023-11-14T05:16:21.983Z,73.36
2023-11-14T05:18:51.382Z,73.10
2023-11-14T05:21:18.440Z,72.68
2023-11-14T05:23:45.401Z,73.16
2023-11-14T05:26:12.510Z,72.89
2023-11-14T05:28:39.710Z,72.81
2023-11-14T05:31:07.042Z,73.46
2023-11-14T05:33:34.116Z,74.37
2023-11-14T05:36:01.007Z,73.44
2023-11-14T05:38:28.616Z,74.75
2023-11-14T05:40:57.736Z,73.99
2023-11-14T05:43:29.440Z,74.84
2023-11-14T05:45:56.745Z,73.90
2023-11-14T05:48:24.405Z,74.35
2023-11-14T05:50:51.482Z,73.67
2023-11-14T05:53:18.397Z,73.16
2023-11-14T05:55:45.685Z,73.22
2023-11-14T05:58:12.836Z,72.83
2023-11-14T06:00:39.933Z,73.21
2023-11-14T06:03:07.046Z,73.57
2023-11-14T06:05:34.107Z,73.53
2023-11-14T06:08:02.003Z,74.59
2023-11-14T06:10:29.001Z,74.62
2023-11-14T06:12:59.225Z,73.43
2023-11-14T06:15:27.301Z,73.72
2023-11-14T06:17:54.798Z,73.70
2023-11-14T06:20:25.713Z,73.48
2023-11-14T06:22:52.695Z,73.66
2023-11-14T06:25:19.938Z,73.90
2023-11-14T06:27:47.042Z,74.87
2023-11-14T06:30:14.438Z,74.60
2023-11-14T06:32:41.959Z,74.47
2023-11-14T06:35:09.191Z,74.87
2023-11-14T06:37:38.264Z,74.46
2023-11-14T06:40:06.196Z,74.26
2023-11-14T06:42:33.160Z,74.52
2023-11-14T06:45:00.067Z,74.65
2023-11-14T06:47:29.272Z,75.59
2023-11-14T06:49:56.173Z,74.58
2023-11-14T06:52:23.117Z,74.70
2023-11-14T06:54:50.185Z,74.74
2023-11-14T06:57:17.083Z,74.47
2023-11-14T06:59:44.060Z,74.43
2023-11-14T07:02:11.030Z,74.32
2023-11-14T07:04:40.912Z,74.07
2023-11-14T07:07:07.908Z,75.65
2023-11-14T07:09:35.219Z,75.34
2023-11-14T07:12:03.165Z,75.42
2023-11-14T07:14:30.518Z,74.77
2023-11-14T07:16:58.110Z,74.89
2023-11-14T07:19:25.264Z,74.81
2023-11-14T07:21:52.195Z,74.80
2023-11-14T07:24:19.221Z,75.46
2023-11-14T07:26:46.244Z,74.78
2023-11-14T07:29:14.301Z,74.82
2023-11-14T07:31:43.372Z,74.57
2023-11-14T07:34:10.503Z,75.14
2023-11-14T07:36:37.415Z,74.50
2023-11-14T07:39:06.384Z,73.55
2023-11-14T07:41:34.369Z,73.13
2023-11-14T07:44:01.781Z,73.04
2023-11-14T07:46:28.785Z,72.61
2023-11-14T07:48:55.880Z,72.43
2023-11-14T07:51:22.890Z,72.82
2023-11-14T07:53:50.968Z,71.95
2023-11-14T07:56:17.997Z,71.53
2023-11-14T07:58:45.013Z,71.44
2023-11-14T08:01:12.151Z,72.04
2023-11-14T08:03:39.687Z,70.77
2023-11-14T08:06:07.829Z,70.48
2023-11-14T08:08:35.012Z,70.58
2023-11-14T08:11:03.422Z,70.84
2023-11-14T08:13:30.555Z,70.47
2023-11-14T08:15:57.484Z,70.33
2023-11-14T08:18:24.366Z,70.33
2023-11-14T08:20:52.264Z,70.03
2023-11-14T08:23:19.220Z,70.36
2023-11-14T08:25:46.243Z,70.51
2023-11-14T08:28:13.254Z,70.09
2023-11-14T08:30:41.413Z,70.08
2023-11-14T08:33:08.950Z,69.57
2023-11-14T08:35:35.878Z,68.37
2023-11-14T08:38:10.293Z,67.02
2023-11-14T08:40:44.321Z,68.52
2023-11-14T08:43:11.281Z,66.74
2023-11-14T08:45:38.701Z,66.16
2023-11-14T08:48:06.133Z,65.59
2023-11-14T08:50:36.570Z,65.79
2023-11-14T08:53:04.438Z,65.53
2023-11-14T08:55:32.022Z,66.20
2023-11-14T08:58:00.932Z,66.18
2023-11-14T09:00:28.605Z,66.25
2023-11-14T09:02:55.590Z,65.86
2023-11-14T09:05:22.568Z,65.36
2023-11-14T09:07:49.518Z,65.21
2023-11-14T09:10:16.461Z,65.22
2023-11-14T09:12:43.547Z,65.51
2023-11-14T09:15:12.551Z,65.83
2023-11-14T09:17:44.739Z,66.01
2023-11-14T09:20:14.491Z,65.82
2023-11-14T09:22:41.544Z,65.91
2023-11-14T09:25:09.391Z,65.87
2023-11-14T09:27:36.328Z,65.92
2023-11-14T09:30:04.031Z,67.12
2023-11-14T09:32:31.164Z,66.23
2023-11-14T09:34:58.355Z,66.31
2023-11-14T09:37:25.553Z,65.47
2023-11-14T09:39:52.760Z,65.88
2023-11-14T09:42:20.140Z,66.09
2023-11-14T09:44:47.492Z,65.30
2023-11-14T09:47:14.921Z,64.75
2023-11-14T09:49:43.823Z,64.01
2023-11-14T09:52:14.327Z,63.16
2023-11-14T09:54:43.467Z,63.04
2023-11-14T09:57:12.846Z,61.91
2023-11-14T09:59:43.377Z,61.90
2023-11-14T10:02:11.315Z,61.94
2023-11-14T10:04:43.285Z,60.94
2023-11-14T10:07:10.775Z,61.08
2023-11-14T10:09:43.791Z,60.78
2023-11-14T10:12:20.674Z,60.51
2023-11-14T10:14:52.306Z,59.84
2023-11-14T10:17:20.731Z,60.08
2023-11-14T10:20:10.416Z,59.59
2023-11-14T10:22:50.893Z,59.35
2023-11-14T10:25:30.971Z,59.15
2023-11-14T10:28:05.939Z,57.69
2023-11-14T10:30:50.381Z,58.00
2023-11-14T10:33:18.220Z,58.09
2023-11-14T10:35:46.667Z,57.70
2023-11-14T10:42:11.556Z,57.70
2023-11-14T10:44:40.005Z,57.34
2023-11-14T10:47:08.343Z,56.82
2023-11-14T10:49:48.429Z,56.46
2023-11-14T10:52:16.954Z,56.71
2023-11-14T10:54:46.645Z,57.52
2023-11-14T10:57:24.020Z,57.47
2023-11-14T10:59:54.382Z,56.66
2023-11-14T11:02:23.326Z,56.23
2023-11-14T11:04:51.532Z,56.95
2023-11-14T11:07:19.708Z,58.06
2023-11-14T11:09:47.104Z,57.03
2023-11-14T11:12:16.248Z,57.08
2023-11-14T11:14:43.838Z,57.31
2023-11-14T11:17:11.028Z,57.21
2023-11-14T11:19:38.854Z,57.62
2023-11-14T11:22:08.026Z,57.35
2023-11-14T11:24:41.449Z,57.14
2023-11-14T11:27:22.567Z,57.76
2023-11-14T11:30:01.651Z,56.78
2023-11-14T11:32:35.833Z,57.93
2023-11-14T11:35:21.562Z,57.70
2023-11-14T11:38:12.636Z,57.33
2023-11-14T11:41:13.904Z,58.03
2023-11-14T11:43:46.142Z,57.23
2023-11-14T11:46:35.526Z,57.57
2023-11-14T11:49:11.850Z,57.90
2023-11-14T11:51:50.061Z,58.03
2023-11-14T11:54:29.379Z,57.58
2023-11-14T11:57:06.177Z,58.45
2023-11-14T11:59:53.500Z,57.86
2023-11-14T12:02:25.270Z,57.72
2023-11-14T12:04:59.473Z,57.91
2023-11-14T12:07:26.664Z,57.64
2023-11-14T12:09:54.572Z,57.24
2023-11-14T12:12:21.627Z,56.93
2023-11-14T12:14:48.646Z,56.95
2023-11-14T12:17:15.809Z,56.33
2023-11-14T12:19:44.782Z,57.26
2023-11-14T12:22:13.248Z,56.35
2023-11-14T12:24:41.269Z,56.78
2023-11-14T12:27:08.166Z,57.10
2023-11-14T12:29:35.064Z,56.94
2023-11-14T12:33:08.522Z,57.31
2023-11-14T12:36:08.887Z,56.70
2023-11-14T12:38:39.229Z,57.22
2023-11-14T12:41:23.062Z,57.13
2023-11-14T12:44:07.715Z,56.26
2023-11-14T12:46:37.901Z,56.36
2023-11-14T12:49:13.904Z,57.02
2023-11-14T12:51:44.864Z,56.43
2023-11-14T12:54:21.546Z,56.78
2023-11-14T12:56:49.916Z,57.58
2023-11-14T12:59:18.182Z,56.92
2023-11-14T13:01:47.002Z,57.68
2023-11-14T13:04:16.674Z,57.46
2023-11-14T13:06:47.402Z,57.38
2023-11-14T13:09:20.994Z,56.70
2023-11-14T13:11:48.409Z,56.79
2023-11-14T13:14:16.025Z,56.55
2023-11-14T13:16:44.817Z,56.20
2023-11-14T13:19:12.909Z,55.61
2023-11-14T13:21:39.905Z,55.91
2023-11-14T13:24:08.610Z,56.81
2023-11-14T13:26:39.515Z,55.77
2023-11-14T13:29:07.592Z,56.17
2023-11-14T13:31:35.260Z,55.27
2023-11-14T13:34:02.210Z,55.43
2023-11-14T13:36:30.388Z,55.44
2023-11-14T13:38:57.481Z,55.87
2023-11-14T13:41:25.113Z,54.44
2023-11-14T13:43:52.278Z,55.13
2023-11-14T13:46:26.576Z,55.67
2023-11-14T13:48:58.252Z,54.92
2023-11-14T13:51:26.251Z,56.04
2023-11-14T13:53:53.405Z,56.04
2023-11-14T13:56:21.062Z,55.76
2023-11-14T13:58:48.278Z,56.26
2023-11-14T14:01:17.905Z,55.91
2023-11-14T14:03:45.730Z,55.98
2023-11-14T14:06:14.129Z,56.05
2023-11-14T14:08:41.240Z,55.46
2023-11-14T14:11:09.751Z,54.81
2023-11-14T14:13:36.917Z,55.38
2023-11-14T14:16:04.958Z,55.79
2023-11-14T14:18:35.214Z,57.82
2023-11-14T14:21:05.273Z,56.98
2023-11-14T14:23:33.467Z,57.82
2023-11-14T14:26:03.503Z,58.46
2023-11-14T14:28:31.575Z,57.87
2023-11-14T14:31:00.839Z,58.22
2023-11-14T14:33:28.018Z,59.28
2023-11-14T14:35:55.175Z,58.58
2023-11-14T14:38:23.506Z,60.30
2023-11-14T14:40:50.888Z,60.54
2023-11-14T14:43:17.912Z,61.33
2023-11-14T14:45:47.326Z,62.67
2023-11-14T14:48:14.711Z,63.39
2023-11-14T14:50:41.771Z,63.83
2023-11-14T14:53:11.134Z,64.69
2023-11-14T14:55:38.501Z,64.18
2023-11-14T14:58:08.153Z,65.06
2023-11-14T15:00:35.232Z,65.25
2023-11-14T15:03:03.031Z,64.39
2023-11-14T15:05:36.633Z,64.63
2023-11-14T15:08:06.868Z,67.21
2023-11-14T15:10:34.787Z,66.32
2023-11-14T15:13:02.644Z,67.95
2023-11-14T15:15:30.905Z,68.14
2023-11-14T15:17:58.972Z,67.71
2023-11-14T15:20:26.855Z,68.14
2023-11-14T15:22:54.419Z,68.94
2023-11-14T15:25:21.670Z,68.79
2023-11-14T15:27:48.961Z,67.04
2023-11-14T15:30:16.367Z,68.04
2023-11-14T15:32:44.087Z,68.56
2023-11-14T15:35:11.384Z,70.00
2023-11-14T15:37:38.393Z,70.58
2023-11-14T15:40:09.516Z,71.37
2023-11-14T15:42:42.753Z,70.88
2023-11-14T15:45:10.750Z,71.82
2023-11-14T15:47:37.727Z,71.25
2023-11-14T15:50:07.245Z,70.65
2023-11-14T15:52:34.357Z,70.23
2023-11-14T15:55:04.283Z,70.52
2023-11-14T15:57:31.308Z,70.82
2023-11-14T15:59:58.194Z,70.04
2023-11-14T16:02:25.295Z,69.26
2023-11-14T16:04:52.243Z,69.59
2023-11-14T16:07:19.104Z,69.95
2023-11-14T16:09:46.023Z,69.47
2023-11-14T16:12:13.793Z,70.53
2023-11-14T16:14:40.684Z,70.47
2023-11-14T16:17:07.700Z,71.16
2023-11-14T16:19:37.742Z,72.11
2023-11-14T16:22:06.287Z,71.49
2023-11-14T16:24:33.501Z,72.65
2023-11-14T16:27:01.772Z,71.30
2023-11-14T16:29:29.137Z,71.28
2023-11-14T16:31:56.648Z,71.06
2023-11-14T16:34:24.035Z,71.00
2023-11-14T16:36:50.980Z,71.74
2023-11-14T16:39:18.364Z,72.07
2023-11-14T16:41:45.452Z,72.26
2023-11-14T16:44:12.784Z,71.79
2023-11-14T16:46:40.370Z,71.29
2023-11-14T16:49:07.775Z,70.75
2023-11-14T16:51:35.140Z,71.04
2023-11-14T16:54:02.946Z,71.17
2023-11-14T16:56:30.160Z,71.46
2023-11-14T16:58:59.291Z,72.12
2023-11-14T17:01:28.665Z,71.57
2023-11-14T17:04:02.522Z,70.92
2023-11-14T17:06:29.980Z,70.95
2023-11-14T17:08:56.826Z,71.43
2023-11-14T17:11:23.777Z,71.15
2023-11-14T17:13:51.402Z,71.31
2023-11-14T17:16:18.360Z,71.14
2023-11-14T17:18:45.299Z,71.17
2023-11-14T17:21:12.593Z,70.50
2023-11-14T17:23:42.490Z,71.16
2023-11-14T17:26:11.285Z,71.23
2023-11-14T17:28:40.895Z,71.57
2023-11-14T17:31:07.793Z,71.84
2023-11-14T17:33:34.700Z,71.92
2023-11-14T17:36:01.709Z,71.73
2023-11-14T17:38:28.850Z,71.39
2023-11-14T17:40:55.891Z,70.96
2023-11-14T17:43:22.800Z,70.78
2023-11-14T17:45:50.358Z,71.81
2023-11-14T17:48:17.346Z,71.89
2023-11-14T17:50:47.268Z,71.67
2023-11-14T17:53:15.187Z,71.94
2023-11-14T17:55:42.254Z,71.59
2023-11-14T17:58:09.143Z,71.78
2023-11-14T18:00:36.571Z,72.10
2023-11-14T18:03:03.823Z,72.41
2023-11-14T18:05:31.920Z,72.02
2023-11-14T18:08:05.609Z,72.50
2023-11-14T18:10:35.229Z,71.96
2023-11-14T18:13:03.213Z,71.60
2023-11-14T18:15:31.267Z,71.77
2023-11-14T18:17:59.569Z,72.40
2023-11-14T18:20:30.558Z,72.41
2023-11-14T18:22:57.678Z,72.18
2023-11-14T18:25:24.926Z,72.12
2023-11-14T18:27:52.016Z,72.67
2023-11-14T18:30:19.381Z,72.02
2023-11-14T18:32:47.993Z,72.35
2023-11-14T18:35:15.447Z,72.29
2023-11-14T18:37:43.595Z,72.70
2023-11-14T18:40:11.165Z,72.72
2023-11-14T18:42:38.395Z,72.40
2023-11-14T18:45:08.261Z,72.24
2023-11-14T18:47:39.775Z,72.54
2023-11-14T18:50:11.000Z,72.20
2023-11-14T18:52:41.620Z,72.05
2023-11-14T18:55:09.525Z,72.27
2023-11-14T18:57:37.104Z,72.23
2023-11-14T19:00:06.099Z,71.84
2023-11-14T19:02:34.095Z,72.26
2023-11-14T19:05:01.266Z,72.18
2023-11-14T19:07:28.502Z,72.25
2023-11-14T19:09:55.688Z,72.19
2023-11-14T19:12:24.397Z,72.14
2023-11-14T19:14:53.181Z,72.52
2023-11-14T19:17:21.446Z,72.57
2023-11-14T19:19:48.777Z,72.45
2023-11-14T19:22:42.611Z,72.68
2023-11-14T19:27:32.186Z,72.57
2023-11-14T19:29:59.502Z,72.50
2023-11-14T19:32:26.866Z,72.57
2023-11-14T19:34:55.442Z,72.61
2023-11-14T19:37:22.665Z,72.51
2023-11-14T19:39:49.684Z,72.61
2023-11-14T19:42:19.434Z,72.72
2023-11-14T19:44:46.643Z,73.17
2023-11-14T19:47:13.902Z,73.58
2023-11-14T19:49:45.347Z,73.30
2023-11-14T19:52:16.490Z,73.48
2023-11-14T19:54:45.511Z,73.47
2023-11-14T19:57:12.479Z,73.88
2023-11-14T19:59:39.850Z,73.52
2023-11-14T20:02:07.291Z,73.81
2023-11-14T20:04:34.225Z,73.39
2023-11-14T20:07:01.697Z,73.60
2023-11-14T20:09:30.105Z,74.07
2023-11-14T20:11:57.890Z,73.77
2023-11-14T20:14:24.957Z,74.09
2023-11-14T20:16:51.982Z,73.89
2023-11-14T20:19:19.493Z,74.01
2023-11-14T20:21:46.744Z,73.90
2023-11-14T20:24:13.787Z,73.95
2023-11-14T20:26:41.814Z,74.06
2023-11-14T20:29:09.364Z,74.18
2023-11-14T20:31:36.445Z,75.40
2023-11-14T20:34:03.377Z,74.59
2023-11-14T20:36:31.853Z,74.03
2023-11-14T20:38:59.450Z,74.49
2023-11-14T20:41:26.813Z,74.50
2023-11-14T20:43:53.832Z,75.58
2023-11-14T20:46:21.042Z,77.93
2023-11-14T20:48:47.954Z,77.42
2023-11-14T20:51:22.402Z,76.10
2023-11-14T20:53:56.910Z,77.57
2023-11-14T20:56:26.577Z,77.02
2023-11-14T20:58:54.555Z,77.44
2023-11-14T21:01:23.050Z,76.32
2023-11-14T21:03:50.672Z,77.16
2023-11-14T21:06:17.684Z,78.57
2023-11-14T21:08:44.875Z,77.32
2023-11-14T21:11:12.126Z,77.95
2023-11-14T21:13:40.148Z,76.88
2023-11-14T21:16:10.830Z,77.55
2023-11-14T21:18:38.697Z,77.03
2023-11-14T21:21:08.362Z,75.95
2023-11-14T21:23:40.036Z,75.71
2023-11-14T21:26:09.677Z,76.17
2023-11-14T21:28:37.854Z,75.62
2023-11-14T21:31:08.576Z,75.28
2023-11-14T21:33:37.086Z,75.78
2023-11-14T21:36:05.803Z,74.70
2023-11-14T21:38:33.447Z,74.44
2023-11-14T21:41:00.999Z,74.60
2023-11-14T21:43:28.456Z,74.91
2023-11-14T21:45:56.601Z,75.45
2023-11-14T21:48:24.075Z,75.93
2023-11-14T21:50:51.199Z,75.62
2023-11-14T21:53:19.270Z,75.31
2023-11-14T21:55:46.349Z,74.36
2023-11-14T21:58:14.081Z,74.38
2023-11-14T22:00:40.989Z,73.91
2023-11-14T22:03:08.029Z,73.46
2023-11-14T22:05:35.055Z,73.45
2023-11-14T22:08:02.053Z,71.90
2023-11-14T22:10:28.964Z,71.36
2023-11-14T22:12:55.899Z,72.28
2023-11-14T22:15:22.854Z,71.78
2023-11-14T22:17:49.851Z,70.49
2023-11-14T22:20:17.193Z,70.96
2023-11-14T22:22:44.133Z,70.29
2023-11-14T22:25:11.133Z,71.02
2023-11-14T22:27:38.117Z,70.75
2023-11-14T22:30:06.394Z,70.10
2023-11-14T22:32:33.474Z,69.99
2023-11-14T22:35:03.343Z,71.60
2023-11-14T22:37:30.264Z,70.67
2023-11-14T22:39:57.240Z,70.56
2023-11-14T22:42:24.133Z,70.92
2023-11-14T22:44:51.261Z,71.25
2023-11-14T22:47:18.344Z,70.81
2023-11-14T22:49:45.355Z,70.61
2023-11-14T22:52:12.921Z,70.64
2023-11-14T22:54:40.094Z,70.73
2023-11-14T22:57:07.024Z,71.36
2023-11-14T22:59:34.012Z,70.56
2023-11-14T23:02:01.123Z,71.31
2023-11-14T23:04:28.232Z,70.95
2023-11-14T23:06:55.817Z,71.34
2023-11-14T23:09:24.389Z,71.81
2023-11-14T23:11:52.098Z,70.13
2023-11-14T23:14:21.738Z,70.19
2023-11-14T23:16:50.033Z,69.67
2023-11-14T23:19:17.792Z,70.03
2023-11-14T23:21:52.216Z,69.45
2023-11-14T23:24:22.424Z,69.18
2023-11-14T23:26:49.940Z,69.07
2023-11-14T23:29:17.086Z,68.63
2023-11-14T23:31:44.451Z,70.21
2023-11-14T23:34:11.436Z,68.18
2023-11-14T23:36:38.442Z,68.77
2023-11-14T23:39:05.760Z,68.66
2023-11-14T23:41:34.898Z,68.31
2023-11-14T23:44:02.799Z,69.27
2023-11-14T23:46:30.610Z,68.77
2023-11-14T23:48:57.562Z,67.82
2023-11-14T23:51:25.066Z,68.65
2023-11-14T23:53:53.532Z,67.99
2023-11-14T23:56:20.700Z,67.65
2023-11-14T23:58:47.587Z,66.80
